Impacts TAF Board
For situational awareness. Not to be used for flight planning purposes.
IDs:

KSLC - Salt Lake City Intl, UT, US

Issued at 2056 UTC 02 Oct 2022
Updated at 2134 UTC 02 Oct 2022
Potential Impact None Slight Moderate High
Time<<03/10Z 03/11Z 03/12Z 03/13Z 03/14Z 03/15Z 03/16Z 03/17Z 03/18Z 03/19Z 03/20Z 03/21Z 03/22Z>>
Type PRVL PRVL PRVL PRVL PRVL PRVL PRVL PRVL PRVL PRVL PRVL PRVL PRVL
VIS >6 >6 >6 >6 >6 >6 >6 >6 >6 >6 >6 >6 >6
CIG -- -- -- -- -- -- -- -- -- -- -- -- --
Cover FEW FEW FEW FEW FEW FEW FEW FEW FEW FEW FEW FEW FEW
FltCat VFR VFR VFR VFR VFR VFR VFR VFR VFR VFR VFR VFR VFR
WX -- -- -- -- -- -- -- -- -- -- -- -- --
WDir 150 150 150 150 150 150 150 150 320 320 320 320 320
WSpd 5 5 5 5 5 5 5 5 8 8 8 8 8
WGst -- -- -- -- -- -- -- -- -- -- -- -- --
WSHgt -- -- -- -- -- -- -- -- -- -- -- -- --
WSDir -- -- -- -- -- -- -- -- -- -- -- -- --
WSSpd -- -- -- -- -- -- -- -- -- -- -- -- --
Raw TAF
KSLC 022056Z 0221/0324 33009KT P6SM FEW110 SCT250
  FM030400 15005KT P6SM FEW100
  FM031800 32008KT P6SM FEW100


METAR Board
Radar Display
Forecast Discussion
For situational awareness. Not to be used for flight planning purposes.